sensor_id;sensor_type;location;lat;lon;timestamp;P1;durP1;ratioP1;P2;durP2;ratioP2
53753;SDS011;39667;52.274;20.964;2024-01-15T00:02:00;8.70;;;6.50;;
53753;SDS011;39667;52.274;20.964;2024-01-15T00:04:31;11.10;;;7.10;;
53753;SDS011;39667;52.274;20.964;2024-01-15T00:07:04;8.80;;;6.80;;
53753;SDS011;39667;52.274;20.964;2024-01-15T00:09:33;7.90;;;6.90;;
53753;SDS011;39667;52.274;20.964;2024-01-15T00:12:02;8.90;;;7.00;;
53753;SDS011;39667;52.274;20.964;2024-01-15T00:14:30;11.00;;;7.80;;
53753;SDS011;39667;52.274;20.964;2024-01-15T00:16:58;9.30;;;7.00;;
53753;SDS011;39667;52.274;20.964;2024-01-15T00:19:25;11.60;;;8.30;;
53753;SDS011;39667;52.274;20.964;2024-01-15T00:22:00;9.40;;;7.70;;
53753;SDS011;39667;52.274;20.964;2024-01-15T00:24:27;9.20;;;7.50;;
53753;SDS011;39667;52.274;20.964;2024-01-15T00:26:55;8.40;;;7.40;;
53753;SDS011;39667;52.274;20.964;2024-01-15T00:29:29;11.20;;;8.10;;
53753;SDS011;39667;52.274;20.964;2024-01-15T00:31:58;11.10;;;8.50;;
53753;SDS011;39667;52.274;20.964;2024-01-15T00:34:31;10.80;;;8.50;;
53753;SDS011;39667;52.274;20.964;2024-01-15T00:36:58;9.40;;;8.10;;
53753;SDS011;39667;52.274;20.964;2024-01-15T00:39:26;8.70;;;7.70;;
53753;SDS011;39667;52.274;20.964;2024-01-15T00:41:57;10.60;;;8.20;;
53753;SDS011;39667;52.274;20.964;2024-01-15T00:44:24;11.90;;;8.30;;
53753;SDS011;39667;52.274;20.964;2024-01-15T00:46:51;9.30;;;7.80;;
53753;SDS011;39667;52.274;20.964;2024-01-15T00:49:18;11.40;;;7.80;;
53753;SDS011;39667;52.274;20.964;2024-01-15T00:51:46;9.80;;;8.80;;
53753;SDS011;39667;52.274;20.964;2024-01-15T00:54:15;12.00;;;9.40;;
53753;SDS011;39667;52.274;20.964;2024-01-15T00:56:42;11.80;;;8.40;;
53753;SDS011;39667;52.274;20.964;2024-01-15T00:59:09;9.60;;;7.90;;
53753;SDS011;39667;52.274;20.964;2024-01-15T01:01:42;8.50;;;7.50;;
53753;SDS011;39667;52.274;20.964;2024-01-15T01:04:10;10.30;;;8.30;;
53753;SDS011;39667;52.274;20.964;2024-01-15T01:06:38;9.50;;;8.10;;
53753;SDS011;39667;52.274;20.964;2024-01-15T01:09:07;9.50;;;8.50;;
53753;SDS011;39667;52.274;20.964;2024-01-15T01:11:37;9.80;;;8.00;;
53753;SDS011;39667;52.274;20.964;2024-01-15T01:14:06;10.10;;;8.40;;
53753;SDS011;39667;52.274;20.964;2024-01-15T01:16:34;8.80;;;7.90;;
53753;SDS011;39667;52.274;20.964;2024-01-15T01:19:06;10.70;;;9.20;;
53753;SDS011;39667;52.274;20.964;2024-01-15T01:21:34;10.30;;;8.10;;
53753;SDS011;39667;52.274;20.964;2024-01-15T01:24:02;8.50;;;7.60;;
53753;SDS011;39667;52.274;20.964;2024-01-15T01:26:29;9.10;;;7.80;;
53753;SDS011;39667;52.274;20.964;2024-01-15T01:28:57;10.80;;;8.60;;
53753;SDS011;39667;52.274;20.964;2024-01-15T01:31:24;8.10;;;7.20;;
53753;SDS011;39667;52.274;20.964;2024-01-15T01:33:53;9.00;;;7.70;;
53753;SDS011;39667;52.274;20.964;2024-01-15T01:36:21;10.50;;;8.80;;
53753;SDS011;39667;52.274;20.964;2024-01-15T01:38:48;11.10;;;8.30;;
53753;SDS011;39667;52.274;20.964;2024-01-15T01:41:16;8.90;;;7.70;;
53753;SDS011;39667;52.274;20.964;2024-01-15T01:43:43;11.00;;;8.20;;
53753;SDS011;39667;52.274;20.964;2024-01-15T01:46:14;10.60;;;9.40;;
53753;SDS011;39667;52.274;20.964;2024-01-15T01:48:41;10.30;;;8.60;;
53753;SDS011;39667;52.274;20.964;2024-01-15T01:51:09;11.30;;;9.10;;
53753;SDS011;39667;52.274;20.964;2024-01-15T01:53:37;11.60;;;9.40;;
53753;SDS011;39667;52.274;20.964;2024-01-15T01:56:05;9.90;;;8.60;;
53753;SDS011;39667;52.274;20.964;2024-01-15T01:58:33;10.50;;;9.40;;
53753;SDS011;39667;52.274;20.964;2024-01-15T02:01:01;11.50;;;9.30;;
53753;SDS011;39667;52.274;20.964;2024-01-15T02:03:30;11.10;;;9.40;;
53753;SDS011;39667;52.274;20.964;2024-01-15T02:05:58;10.10;;;8.90;;
53753;SDS011;39667;52.274;20.964;2024-01-15T02:08:27;11.50;;;9.60;;
53753;SDS011;39667;52.274;20.964;2024-01-15T02:10:54;11.10;;;9.80;;
53753;SDS011;39667;52.274;20.964;2024-01-15T02:13:22;11.90;;;9.30;;
53753;SDS011;39667;52.274;20.964;2024-01-15T02:15:49;10.60;;;8.60;;
53753;SDS011;39667;52.274;20.964;2024-01-15T02:18:17;12.00;;;10.20;;
53753;SDS011;39667;52.274;20.964;2024-01-15T02:20:44;10.40;;;9.30;;
53753;SDS011;39667;52.274;20.964;2024-01-15T02:23:13;10.60;;;9.10;;
53753;SDS011;39667;52.274;20.964;2024-01-15T02:28:27;12.00;;;10.20;;
53753;SDS011;39667;52.274;20.964;2024-01-15T02:30:55;11.50;;;9.90;;
53753;SDS011;39667;52.274;20.964;2024-01-15T02:33:23;10.70;;;9.40;;
53753;SDS011;39667;52.274;20.964;2024-01-15T02:35:53;12.10;;;10.20;;
53753;SDS011;39667;52.274;20.964;2024-01-15T02:38:20;12.80;;;10.70;;
53753;SDS011;39667;52.274;20.964;2024-01-15T02:40:49;12.60;;;10.50;;
53753;SDS011;39667;52.274;20.964;2024-01-15T02:43:16;13.10;;;10.50;;
53753;SDS011;39667;52.274;20.964;2024-01-15T02:45:45;11.70;;;10.10;;
53753;SDS011;39667;52.274;20.964;2024-01-15T02:48:14;11.60;;;10.40;;
53753;SDS011;39667;52.274;20.964;2024-01-15T02:50:41;12.50;;;11.20;;
53753;SDS011;39667;52.274;20.964;2024-01-15T02:53:08;12.70;;;11.30;;
53753;SDS011;39667;52.274;20.964;2024-01-15T02:55:36;11.60;;;10.30;;
53753;SDS011;39667;52.274;20.964;2024-01-15T02:58:03;13.10;;;11.20;;
53753;SDS011;39667;52.274;20.964;2024-01-15T03:00:31;10.80;;;9.60;;
53753;SDS011;39667;52.274;20.964;2024-01-15T03:03:01;11.70;;;10.40;;
53753;SDS011;39667;52.274;20.964;2024-01-15T03:05:28;11.60;;;10.10;;
53753;SDS011;39667;52.274;20.964;2024-01-15T03:07:56;13.90;;;11.40;;
53753;SDS011;39667;52.274;20.964;2024-01-15T03:10:23;12.10;;;10.30;;
53753;SDS011;39667;52.274;20.964;2024-01-15T03:12:50;11.00;;;9.90;;
53753;SDS011;39667;52.274;20.964;2024-01-15T03:15:18;13.70;;;10.80;;
53753;SDS011;39667;52.274;20.964;2024-01-15T03:17:47;12.90;;;10.10;;
53753;SDS011;39667;52.274;20.964;2024-01-15T03:20:14;13.60;;;11.00;;
53753;SDS011;39667;52.274;20.964;2024-01-15T03:22:41;12.70;;;10.30;;
53753;SDS011;39667;52.274;20.964;2024-01-15T03:25:08;12.80;;;10.90;;
53753;SDS011;39667;52.274;20.964;2024-01-15T03:27:36;12.90;;;11.20;;
53753;SDS011;39667;52.274;20.964;2024-01-15T03:30:03;13.80;;;11.00;;
53753;SDS011;39667;52.274;20.964;2024-01-15T03:32:31;11.90;;;10.50;;
53753;SDS011;39667;52.274;20.964;2024-01-15T03:34:59;13.50;;;11.50;;
53753;SDS011;39667;52.274;20.964;2024-01-15T03:37:27;12.60;;;10.50;;
53753;SDS011;39667;52.274;20.964;2024-01-15T03:39:54;12.80;;;10.70;;
53753;SDS011;39667;52.274;20.964;2024-01-15T03:42:22;12.00;;;10.60;;
53753;SDS011;39667;52.274;20.964;2024-01-15T03:44:51;11.30;;;10.10;;
53753;SDS011;39667;52.274;20.964;2024-01-15T03:47:19;11.50;;;9.60;;
53753;SDS011;39667;52.274;20.964;2024-01-15T03:49:46;13.70;;;10.90;;
53753;SDS011;39667;52.274;20.964;2024-01-15T03:52:13;11.50;;;10.30;;
53753;SDS011;39667;52.274;20.964;2024-01-15T03:54:41;13.90;;;11.20;;
53753;SDS011;39667;52.274;20.964;2024-01-15T03:57:08;13.70;;;11.10;;
53753;SDS011;39667;52.274;20.964;2024-01-15T03:59:37;12.90;;;11.60;;
53753;SDS011;39667;52.274;20.964;2024-01-15T04:02:05;11.80;;;10.30;;
53753;SDS011;39667;52.274;20.964;2024-01-15T04:04:33;14.20;;;10.90;;
53753;SDS011;39667;52.274;20.964;2024-01-15T04:07:00;12.70;;;10.70;;
53753;SDS011;39667;52.274;20.964;2024-01-15T04:09:30;11.90;;;10.40;;
53753;SDS011;39667;52.274;20.964;2024-01-15T04:11:58;14.90;;;10.50;;
53753;SDS011;39667;52.274;20.964;2024-01-15T04:14:25;14.90;;;10.80;;
53753;SDS011;39667;52.274;20.964;2024-01-15T04:16:52;13.00;;;10.20;;
53753;SDS011;39667;52.274;20.964;2024-01-15T04:19:22;11.90;;;10.60;;
53753;SDS011;39667;52.274;20.964;2024-01-15T04:21:50;11.00;;;9.20;;
53753;SDS011;39667;52.274;20.964;2024-01-15T04:24:18;14.80;;;10.30;;
53753;SDS011;39667;52.274;20.964;2024-01-15T04:26:48;11.30;;;10.00;;
53753;SDS011;39667;52.274;20.964;2024-01-15T04:29:16;10.60;;;9.50;;
53753;SDS011;39667;52.274;20.964;2024-01-15T04:31:43;11.30;;;9.60;;
53753;SDS011;39667;52.274;20.964;2024-01-15T04:34:10;12.10;;;10.80;;
53753;SDS011;39667;52.274;20.964;2024-01-15T04:36:39;10.70;;;9.20;;
53753;SDS011;39667;52.274;20.964;2024-01-15T04:39:07;12.30;;;9.50;;
53753;SDS011;39667;52.274;20.964;2024-01-15T04:41:36;10.10;;;8.90;;
53753;SDS011;39667;52.274;20.964;2024-01-15T04:44:04;11.40;;;10.00;;
53753;SDS011;39667;52.274;20.964;2024-01-15T04:46:31;10.70;;;9.40;;
53753;SDS011;39667;52.274;20.964;2024-01-15T04:49:01;10.90;;;9.10;;
53753;SDS011;39667;52.274;20.964;2024-01-15T04:51:29;12.30;;;8.80;;
53753;SDS011;39667;52.274;20.964;2024-01-15T04:53:57;10.10;;;8.90;;
53753;SDS011;39667;52.274;20.964;2024-01-15T04:56:27;10.40;;;9.20;;
53753;SDS011;39667;52.274;20.964;2024-01-15T04:58:56;9.40;;;8.50;;
53753;SDS011;39667;52.274;20.964;2024-01-15T05:01:32;9.60;;;8.60;;
53753;SDS011;39667;52.274;20.964;2024-01-15T05:04:02;11.40;;;9.60;;
53753;SDS011;39667;52.274;20.964;2024-01-15T05:06:30;11.00;;;9.20;;
53753;SDS011;39667;52.274;20.964;2024-01-15T05:08:59;10.40;;;8.40;;
53753;SDS011;39667;52.274;20.964;2024-01-15T05:11:29;10.80;;;9.60;;
53753;SDS011;39667;52.274;20.964;2024-01-15T05:14:17;10.20;;;8.90;;
53753;SDS011;39667;52.274;20.964;2024-01-15T05:16:47;10.80;;;8.70;;
53753;SDS011;39667;52.274;20.964;2024-01-15T05:19:18;11.50;;;8.40;;
53753;SDS011;39667;52.274;20.964;2024-01-15T05:21:46;9.50;;;8.50;;
53753;SDS011;39667;52.274;20.964;2024-01-15T05:24:15;10.30;;;9.20;;
53753;SDS011;39667;52.274;20.964;2024-01-15T05:26:43;9.80;;;8.80;;
53753;SDS011;39667;52.274;20.964;2024-01-15T05:29:10;10.00;;;8.70;;
53753;SDS011;39667;52.274;20.964;2024-01-15T05:31:37;9.50;;;8.40;;
53753;SDS011;39667;52.274;20.964;2024-01-15T05:34:04;11.20;;;8.90;;
53753;SDS011;39667;52.274;20.964;2024-01-15T05:36:32;9.20;;;8.20;;
53753;SDS011;39667;52.274;20.964;2024-01-15T05:39:00;9.40;;;8.40;;
53753;SDS011;39667;52.274;20.964;2024-01-15T05:41:27;11.60;;;9.00;;
53753;SDS011;39667;52.274;20.964;2024-01-15T05:43:56;10.80;;;9.50;;
53753;SDS011;39667;52.274;20.964;2024-01-15T05:46:23;11.50;;;9.30;;
53753;SDS011;39667;52.274;20.964;2024-01-15T05:48:50;10.30;;;9.10;;
53753;SDS011;39667;52.274;20.964;2024-01-15T05:51:19;10.20;;;8.70;;
53753;SDS011;39667;52.274;20.964;2024-01-15T05:53:46;9.30;;;8.40;;
53753;SDS011;39667;52.274;20.964;2024-01-15T05:56:17;10.50;;;9.40;;
53753;SDS011;39667;52.274;20.964;2024-01-15T05:58:44;10.50;;;9.40;;
53753;SDS011;39667;52.274;20.964;2024-01-15T06:01:16;9.60;;;8.60;;
53753;SDS011;39667;52.274;20.964;2024-01-15T06:03:45;10.00;;;8.40;;
53753;SDS011;39667;52.274;20.964;2024-01-15T06:06:13;10.60;;;9.50;;
53753;SDS011;39667;52.274;20.964;2024-01-15T06:08:40;10.90;;;8.90;;
53753;SDS011;39667;52.274;20.964;2024-01-15T06:11:07;11.30;;;9.10;;
53753;SDS011;39667;52.274;20.964;2024-01-15T06:13:35;9.50;;;8.50;;
53753;SDS011;39667;52.274;20.964;2024-01-15T06:16:03;10.20;;;9.20;;
53753;SDS011;39667;52.274;20.964;2024-01-15T06:18:38;10.10;;;9.10;;
53753;SDS011;39667;52.274;20.964;2024-01-15T06:21:05;9.80;;;8.80;;
53753;SDS011;39667;52.274;20.964;2024-01-15T06:23:34;11.20;;;9.80;;
53753;SDS011;39667;52.274;20.964;2024-01-15T06:26:01;10.80;;;9.70;;
53753;SDS011;39667;52.274;20.964;2024-01-15T06:28:30;10.60;;;9.20;;
53753;SDS011;39667;52.274;20.964;2024-01-15T06:30:58;10.70;;;8.90;;
53753;SDS011;39667;52.274;20.964;2024-01-15T06:33:46;9.70;;;8.70;;
53753;SDS011;39667;52.274;20.964;2024-01-15T06:36:35;10.90;;;9.40;;
53753;SDS011;39667;52.274;20.964;2024-01-15T06:39:03;10.50;;;8.90;;
53753;SDS011;39667;52.274;20.964;2024-01-15T06:41:33;9.60;;;8.40;;
53753;SDS011;39667;52.274;20.964;2024-01-15T06:44:03;10.40;;;9.30;;
53753;SDS011;39667;52.274;20.964;2024-01-15T06:46:35;10.60;;;9.50;;
53753;SDS011;39667;52.274;20.964;2024-01-15T06:49:03;10.40;;;8.60;;
53753;SDS011;39667;52.274;20.964;2024-01-15T06:51:34;12.10;;;9.10;;
53753;SDS011;39667;52.274;20.964;2024-01-15T06:54:03;10.60;;;9.60;;
53753;SDS011;39667;52.274;20.964;2024-01-15T06:56:32;11.80;;;9.90;;
53753;SDS011;39667;52.274;20.964;2024-01-15T06:59:01;11.10;;;9.00;;
53753;SDS011;39667;52.274;20.964;2024-01-15T07:01:33;10.70;;;9.00;;
53753;SDS011;39667;52.274;20.964;2024-01-15T07:04:04;10.70;;;9.50;;
53753;SDS011;39667;52.274;20.964;2024-01-15T07:06:32;12.70;;;9.90;;
53753;SDS011;39667;52.274;20.964;2024-01-15T07:09:00;10.20;;;9.20;;
53753;SDS011;39667;52.274;20.964;2024-01-15T07:11:28;11.20;;;9.30;;
53753;SDS011;39667;52.274;20.964;2024-01-15T07:13:56;11.30;;;9.80;;
53753;SDS011;39667;52.274;20.964;2024-01-15T07:16:24;11.50;;;10.20;;
53753;SDS011;39667;52.274;20.964;2024-01-15T07:19:03;11.50;;;9.70;;
53753;SDS011;39667;52.274;20.964;2024-01-15T07:21:31;11.20;;;9.40;;
53753;SDS011;39667;52.274;20.964;2024-01-15T07:23:59;11.40;;;10.10;;
53753;SDS011;39667;52.274;20.964;2024-01-15T07:26:29;11.00;;;9.90;;
53753;SDS011;39667;52.274;20.964;2024-01-15T07:28:58;11.30;;;10.00;;
53753;SDS011;39667;52.274;20.964;2024-01-15T07:31:28;11.50;;;10.20;;
53753;SDS011;39667;52.274;20.964;2024-01-15T07:34:06;11.90;;;9.70;;
53753;SDS011;39667;52.274;20.964;2024-01-15T07:36:56;11.40;;;9.60;;
53753;SDS011;39667;52.274;20.964;2024-01-15T07:39:53;12.50;;;11.10;;
53753;SDS011;39667;52.274;20.964;2024-01-15T07:42:48;14.90;;;9.90;;
53753;SDS011;39667;52.274;20.964;2024-01-15T07:46:16;10.70;;;9.00;;
53753;SDS011;39667;52.274;20.964;2024-01-15T07:48:47;11.10;;;9.50;;
53753;SDS011;39667;52.274;20.964;2024-01-15T07:51:16;11.30;;;9.30;;
53753;SDS011;39667;52.274;20.964;2024-01-15T07:57:00;9.30;;;7.90;;
53753;SDS011;39667;52.274;20.964;2024-01-15T07:59:32;10.70;;;9.60;;
53753;SDS011;39667;52.274;20.964;2024-01-15T08:02:04;10.10;;;9.10;;
53753;SDS011;39667;52.274;20.964;2024-01-15T08:04:31;10.00;;;8.90;;
53753;SDS011;39667;52.274;20.964;2024-01-15T08:07:00;9.00;;;8.10;;
53753;SDS011;39667;52.274;20.964;2024-01-15T08:09:36;9.60;;;8.60;;
53753;SDS011;39667;52.274;20.964;2024-01-15T08:12:05;9.50;;;8.50;;
53753;SDS011;39667;52.274;20.964;2024-01-15T08:14:37;9.80;;;8.60;;
53753;SDS011;39667;52.274;20.964;2024-01-15T08:17:04;9.60;;;8.60;;
53753;SDS011;39667;52.274;20.964;2024-01-15T08:19:32;10.10;;;9.00;;
53753;SDS011;39667;52.274;20.964;2024-01-15T08:22:03;11.20;;;9.10;;
53753;SDS011;39667;52.274;20.964;2024-01-15T08:24:31;8.80;;;7.90;;
53753;SDS011;39667;52.274;20.964;2024-01-15T08:26:59;8.40;;;7.50;;
53753;SDS011;39667;52.274;20.964;2024-01-15T08:29:27;10.20;;;8.90;;
53753;SDS011;39667;52.274;20.964;2024-01-15T08:31:55;9.10;;;8.20;;
53753;SDS011;39667;52.274;20.964;2024-01-15T08:34:23;8.50;;;7.60;;
53753;SDS011;39667;52.274;20.964;2024-01-15T08:36:53;9.10;;;8.20;;
53753;SDS011;39667;52.274;20.964;2024-01-15T08:39:20;9.10;;;7.30;;
53753;SDS011;39667;52.274;20.964;2024-01-15T08:41:47;9.00;;;8.10;;
53753;SDS011;39667;52.274;20.964;2024-01-15T08:44:16;8.30;;;6.80;;
53753;SDS011;39667;52.274;20.964;2024-01-15T08:46:43;7.80;;;7.00;;
53753;SDS011;39667;52.274;20.964;2024-01-15T08:49:11;7.70;;;6.20;;
53753;SDS011;39667;52.274;20.964;2024-01-15T08:51:38;8.10;;;7.30;;
53753;SDS011;39667;52.274;20.964;2024-01-15T08:54:05;9.20;;;7.20;;
53753;SDS011;39667;52.274;20.964;2024-01-15T08:56:35;8.20;;;7.10;;
53753;SDS011;39667;52.274;20.964;2024-01-15T08:59:02;7.00;;;6.40;;
53753;SDS011;39667;52.274;20.964;2024-01-15T09:01:31;7.10;;;6.40;;
53753;SDS011;39667;52.274;20.964;2024-01-15T09:03:59;9.20;;;8.20;;
53753;SDS011;39667;52.274;20.964;2024-01-15T09:06:26;8.40;;;7.40;;
53753;SDS011;39667;52.274;20.964;2024-01-15T09:08:54;8.30;;;7.40;;
53753;SDS011;39667;52.274;20.964;2024-01-15T09:11:21;9.40;;;7.70;;
53753;SDS011;39667;52.274;20.964;2024-01-15T09:13:49;7.40;;;6.70;;
53753;SDS011;39667;52.274;20.964;2024-01-15T09:16:19;9.20;;;7.70;;
53753;SDS011;39667;52.274;20.964;2024-01-15T09:21:09;7.90;;;7.10;;
53753;SDS011;39667;52.274;20.964;2024-01-15T09:23:37;8.80;;;7.50;;
53753;SDS011;39667;52.274;20.964;2024-01-15T09:26:04;7.60;;;6.50;;
53753;SDS011;39667;52.274;20.964;2024-01-15T09:28:31;9.30;;;6.40;;
53753;SDS011;39667;52.274;20.964;2024-01-15T09:37:18;8.80;;;7.00;;
53753;SDS011;39667;52.274;20.964;2024-01-15T09:40:06;8.50;;;7.00;;
53753;SDS011;39667;52.274;20.964;2024-01-15T09:42:40;7.30;;;6.60;;
53753;SDS011;39667;52.274;20.964;2024-01-15T09:45:08;7.70;;;6.40;;
53753;SDS011;39667;52.274;20.964;2024-01-15T09:47:37;8.90;;;6.20;;
53753;SDS011;39667;52.274;20.964;2024-01-15T09:50:10;8.80;;;6.50;;
53753;SDS011;39667;52.274;20.964;2024-01-15T09:59:01;6.20;;;5.00;;
53753;SDS011;39667;52.274;20.964;2024-01-15T10:01:37;8.10;;;5.20;;
53753;SDS011;39667;52.274;20.964;2024-01-15T10:04:06;6.70;;;5.60;;
53753;SDS011;39667;52.274;20.964;2024-01-15T10:06:35;8.90;;;6.20;;
53753;SDS011;39667;52.274;20.964;2024-01-15T10:09:23;7.80;;;6.00;;
53753;SDS011;39667;52.274;20.964;2024-01-15T10:11:50;8.30;;;6.20;;
53753;SDS011;39667;52.274;20.964;2024-01-15T10:14:18;8.00;;;5.10;;
53753;SDS011;39667;52.274;20.964;2024-01-15T10:16:45;6.00;;;4.90;;
53753;SDS011;39667;52.274;20.964;2024-01-15T10:19:14;7.40;;;5.80;;
53753;SDS011;39667;52.274;20.964;2024-01-15T10:21:42;5.90;;;4.80;;
53753;SDS011;39667;52.274;20.964;2024-01-15T10:24:09;6.90;;;5.70;;
53753;SDS011;39667;52.274;20.964;2024-01-15T10:26:36;8.40;;;5.80;;
53753;SDS011;39667;52.274;20.964;2024-01-15T10:29:03;7.80;;;5.70;;
53753;SDS011;39667;52.274;20.964;2024-01-15T10:31:30;9.30;;;5.40;;
53753;SDS011;39667;52.274;20.964;2024-01-15T10:34:11;8.40;;;6.30;;
53753;SDS011;39667;52.274;20.964;2024-01-15T10:36:39;8.00;;;6.00;;
53753;SDS011;39667;52.274;20.964;2024-01-15T10:39:08;7.30;;;5.80;;
53753;SDS011;39667;52.274;20.964;2024-01-15T10:41:35;6.90;;;5.60;;
53753;SDS011;39667;52.274;20.964;2024-01-15T10:44:03;9.20;;;6.60;;
53753;SDS011;39667;52.274;20.964;2024-01-15T10:46:31;7.90;;;6.60;;
53753;SDS011;39667;52.274;20.964;2024-01-15T10:48:59;9.30;;;6.60;;
53753;SDS011;39667;52.274;20.964;2024-01-15T10:51:27;7.90;;;6.00;;
53753;SDS011;39667;52.274;20.964;2024-01-15T10:53:55;8.60;;;7.10;;
53753;SDS011;39667;52.274;20.964;2024-01-15T10:56:23;9.80;;;6.60;;
53753;SDS011;39667;52.274;20.964;2024-01-15T10:58:52;7.90;;;6.60;;
53753;SDS011;39667;52.274;20.964;2024-01-15T11:01:25;9.40;;;6.40;;
53753;SDS011;39667;52.274;20.964;2024-01-15T11:03:56;8.10;;;6.40;;
53753;SDS011;39667;52.274;20.964;2024-01-15T11:06:24;7.50;;;6.60;;
53753;SDS011;39667;52.274;20.964;2024-01-15T11:08:52;8.10;;;6.90;;
53753;SDS011;39667;52.274;20.964;2024-01-15T11:11:20;6.90;;;5.80;;
53753;SDS011;39667;52.274;20.964;2024-01-15T11:13:48;7.80;;;6.50;;
53753;SDS011;39667;52.274;20.964;2024-01-15T11:16:19;11.10;;;6.60;;
53753;SDS011;39667;52.274;20.964;2024-01-15T11:21:46;8.20;;;6.40;;
53753;SDS011;39667;52.274;20.964;2024-01-15T11:24:33;7.20;;;5.10;;
53753;SDS011;39667;52.274;20.964;2024-01-15T11:27:09;7.90;;;6.00;;
53753;SDS011;39667;52.274;20.964;2024-01-15T11:29:37;9.90;;;7.40;;
53753;SDS011;39667;52.274;20.964;2024-01-15T11:32:06;8.90;;;7.00;;
53753;SDS011;39667;52.274;20.964;2024-01-15T11:37:26;9.70;;;6.70;;
53753;SDS011;39667;52.274;20.964;2024-01-15T11:39:54;7.70;;;6.30;;
53753;SDS011;39667;52.274;20.964;2024-01-15T11:42:23;10.00;;;7.30;;
53753;SDS011;39667;52.274;20.964;2024-01-15T11:44:51;8.50;;;6.50;;
53753;SDS011;39667;52.274;20.964;2024-01-15T11:47:23;7.60;;;6.70;;
53753;SDS011;39667;52.274;20.964;2024-01-15T11:50:19;8.40;;;6.20;;
53753;SDS011;39667;52.274;20.964;2024-01-15T11:52:51;8.00;;;6.60;;
53753;SDS011;39667;52.274;20.964;2024-01-15T11:58:02;8.80;;;6.30;;
53753;SDS011;39667;52.274;20.964;2024-01-15T12:00:42;9.40;;;6.30;;
53753;SDS011;39667;52.274;20.964;2024-01-15T12:03:11;10.00;;;6.50;;
53753;SDS011;39667;52.274;20.964;2024-01-15T12:05:38;10.40;;;6.80;;
53753;SDS011;39667;52.274;20.964;2024-01-15T12:08:06;7.60;;;6.20;;
53753;SDS011;39667;52.274;20.964;2024-01-15T12:10:38;9.00;;;7.20;;
53753;SDS011;39667;52.274;20.964;2024-01-15T12:13:11;11.00;;;7.40;;
53753;SDS011;39667;52.274;20.964;2024-01-15T12:15:41;8.40;;;6.70;;
53753;SDS011;39667;52.274;20.964;2024-01-15T12:18:11;8.70;;;6.50;;
53753;SDS011;39667;52.274;20.964;2024-01-15T12:20:41;9.70;;;6.90;;
53753;SDS011;39667;52.274;20.964;2024-01-15T12:23:10;9.00;;;6.60;;
53753;SDS011;39667;52.274;20.964;2024-01-15T12:25:38;8.30;;;6.30;;
53753;SDS011;39667;52.274;20.964;2024-01-15T12:28:06;7.60;;;5.50;;
53753;SDS011;39667;52.274;20.964;2024-01-15T12:30:34;10.10;;;7.00;;
53753;SDS011;39667;52.274;20.964;2024-01-15T12:33:06;9.90;;;7.60;;
53753;SDS011;39667;52.274;20.964;2024-01-15T12:35:35;10.70;;;7.10;;
53753;SDS011;39667;52.274;20.964;2024-01-15T12:38:03;13.30;;;7.30;;
53753;SDS011;39667;52.274;20.964;2024-01-15T12:40:31;11.60;;;8.50;;
53753;SDS011;39667;52.274;20.964;2024-01-15T12:43:02;9.60;;;7.50;;
53753;SDS011;39667;52.274;20.964;2024-01-15T12:45:29;11.80;;;8.10;;
53753;SDS011;39667;52.274;20.964;2024-01-15T12:47:58;9.10;;;7.80;;
53753;SDS011;39667;52.274;20.964;2024-01-15T12:50:26;9.90;;;8.10;;
53753;SDS011;39667;52.274;20.964;2024-01-15T12:52:53;11.10;;;8.70;;
53753;SDS011;39667;52.274;20.964;2024-01-15T12:55:20;10.80;;;8.40;;
53753;SDS011;39667;52.274;20.964;2024-01-15T12:57:47;10.20;;;7.70;;
53753;SDS011;39667;52.274;20.964;2024-01-15T13:00:16;11.80;;;8.10;;
53753;SDS011;39667;52.274;20.964;2024-01-15T13:02:44;12.00;;;8.90;;
53753;SDS011;39667;52.274;20.964;2024-01-15T13:05:11;12.40;;;8.30;;
53753;SDS011;39667;52.274;20.964;2024-01-15T13:07:41;11.20;;;8.20;;
53753;SDS011;39667;52.274;20.964;2024-01-15T13:10:08;10.00;;;8.60;;
53753;SDS011;39667;52.274;20.964;2024-01-15T13:12:39;10.40;;;8.30;;
53753;SDS011;39667;52.274;20.964;2024-01-15T13:15:08;10.40;;;8.10;;
53753;SDS011;39667;52.274;20.964;2024-01-15T13:17:40;10.60;;;7.90;;
53753;SDS011;39667;52.274;20.964;2024-01-15T13:20:08;8.10;;;5.70;;
53753;SDS011;39667;52.274;20.964;2024-01-15T13:22:38;8.60;;;7.40;;
53753;SDS011;39667;52.274;20.964;2024-01-15T13:25:07;10.10;;;7.00;;
53753;SDS011;39667;52.274;20.964;2024-01-15T13:27:35;9.30;;;7.20;;
53753;SDS011;39667;52.274;20.964;2024-01-15T13:30:03;9.60;;;6.80;;
53753;SDS011;39667;52.274;20.964;2024-01-15T13:32:31;10.50;;;7.60;;
53753;SDS011;39667;52.274;20.964;2024-01-15T13:34:59;10.50;;;7.90;;
53753;SDS011;39667;52.274;20.964;2024-01-15T13:37:26;11.70;;;7.50;;
53753;SDS011;39667;52.274;20.964;2024-01-15T13:39:54;11.70;;;8.30;;
53753;SDS011;39667;52.274;20.964;2024-01-15T13:42:21;11.60;;;9.20;;
53753;SDS011;39667;52.274;20.964;2024-01-15T13:44:49;10.20;;;8.00;;
53753;SDS011;39667;52.274;20.964;2024-01-15T13:47:16;10.80;;;7.60;;
53753;SDS011;39667;52.274;20.964;2024-01-15T13:49:43;11.40;;;7.90;;
53753;SDS011;39667;52.274;20.964;2024-01-15T13:52:10;9.00;;;7.50;;
53753;SDS011;39667;52.274;20.964;2024-01-15T13:54:37;12.00;;;8.10;;
53753;SDS011;39667;52.274;20.964;2024-01-15T13:57:18;13.70;;;8.40;;
53753;SDS011;39667;52.274;20.964;2024-01-15T13:59:46;10.90;;;7.80;;
53753;SDS011;39667;52.274;20.964;2024-01-15T14:02:14;12.80;;;9.50;;
53753;SDS011;39667;52.274;20.964;2024-01-15T14:04:47;12.20;;;8.60;;
53753;SDS011;39667;52.274;20.964;2024-01-15T14:07:15;12.40;;;8.00;;
53753;SDS011;39667;52.274;20.964;2024-01-15T14:09:43;12.50;;;7.80;;
53753;SDS011;39667;52.274;20.964;2024-01-15T14:12:13;13.80;;;8.70;;
53753;SDS011;39667;52.274;20.964;2024-01-15T14:14:41;12.50;;;9.70;;
53753;SDS011;39667;52.274;20.964;2024-01-15T14:17:10;14.40;;;8.10;;
53753;SDS011;39667;52.274;20.964;2024-01-15T14:19:36;12.50;;;8.90;;
53753;SDS011;39667;52.274;20.964;2024-01-15T14:22:07;15.50;;;8.30;;
53753;SDS011;39667;52.274;20.964;2024-01-15T14:24:37;11.20;;;8.70;;
53753;SDS011;39667;52.274;20.964;2024-01-15T14:27:05;14.00;;;9.00;;
53753;SDS011;39667;52.274;20.964;2024-01-15T14:29:35;12.50;;;7.60;;
53753;SDS011;39667;52.274;20.964;2024-01-15T14:32:02;11.10;;;8.40;;
53753;SDS011;39667;52.274;20.964;2024-01-15T14:34:36;12.40;;;7.80;;
53753;SDS011;39667;52.274;20.964;2024-01-15T14:37:06;11.20;;;8.20;;
53753;SDS011;39667;52.274;20.964;2024-01-15T14:39:34;11.50;;;8.50;;
53753;SDS011;39667;52.274;20.964;2024-01-15T14:42:13;9.70;;;6.60;;
53753;SDS011;39667;52.274;20.964;2024-01-15T14:44:44;11.80;;;8.20;;
53753;SDS011;39667;52.274;20.964;2024-01-15T14:47:11;11.20;;;7.70;;
53753;SDS011;39667;52.274;20.964;2024-01-15T14:49:38;12.60;;;7.80;;
53753;SDS011;39667;52.274;20.964;2024-01-15T14:52:06;9.70;;;7.20;;
53753;SDS011;39667;52.274;20.964;2024-01-15T14:54:34;11.00;;;8.10;;
53753;SDS011;39667;52.274;20.964;2024-01-15T14:57:01;11.30;;;8.10;;
53753;SDS011;39667;52.274;20.964;2024-01-15T14:59:29;11.80;;;8.10;;
53753;SDS011;39667;52.274;20.964;2024-01-15T15:01:57;12.50;;;8.60;;
53753;SDS011;39667;52.274;20.964;2024-01-15T15:04:24;12.70;;;8.50;;
53753;SDS011;39667;52.274;20.964;2024-01-15T15:06:52;13.50;;;8.40;;